A- A+ FrançaisEnglishEspañol中国

Services sur Internet Soldes sur Internet Des idées de cadeaux Météo Météo aéro

La météo à : Autours de vous Tarbes-Lourdes-PyrénéesRennes-St-Jacques Toussus-Le-NobleBasle-Mulhouse

La météo aéronautique pour les pilotes, la préparation du vol avec les METAR (METeorological Aerodrome Report, message d'observation des conditions météorologiques pour l'aviation) et Les TAF (Terminal Aerodrome Forecast : message de prévision à court terme des conditions météorologiques pour l'aviation). Et les autres ressources comme les VAC (Visual Approch Chart) et les NOTAM (Notice To Airman) pour préprer les vols.

Aéroport Kristiansand Kjevik (Norvège) / OACI ENCN/ IATA KRS

L'altitude de l'aéroport Kristiansand Kjevik est de 17 m = 56 ft. Il est situé à proximité de Kjevik (Norvège). La météo générale à 5 jours est disponible pour Kristiansand situé à 8.3 km.

METAR de l'aéroport Kristiansand Kjevik - ENCN

ENCN 111650Z 03011KT 9999 -SN FEW007 BKN013 M00/M01 Q1002

Décodage du METAR de l'aéroport Kristiansand Kjevik (NO)

METAR émis par ENCN le lundi 11 novembre 2019 à 16:50 heure TU. Attention ce METAR est obsolète car il a été émis il y a 4 heure et 58 minutes.

La visibilité est de supérieure à 10 km = supérieure à 6.2 sm.

La température est de 0°C = 32 °F et le point rosée est de -1°C = 30 °F . Ce qui correspond à 93% d'humidité relative.

Le QNH est de 1002 hPa = 29.59 inHg

Vent de 11 kt = 20 km/h, orienté à 30°.

Nuages : Quelques nuages à 700 ft = 210 mètres. Couverture nuageuse fragmentée à 1300 ft = 400 mètres.

-SN

TAF de l'aéroport Kristiansand Kjevik - ENCN

ENCN 111400Z 1115/1122 05008KT 9999 FEW010 BKN020 BECMG 1115/1117 BKN012 TEMPO 1115/1121 2500 SN RASN BKN007 PROB30 TEMPO 1117/1119 -FZRA TEMPO 1121/1122 4000 -RASN BR BKN004

ENCN 111400Z 1115/1122 05008KT 9999 quelques nuages à 010 couverture nuageuse fragmentée à 020 devenant 1115/1117 couverture nuageuse fragmentée à 012 temporairement 1115/1121 2500 neige pluie SN couverture nuageuse fragmentée à 007 probabilité de 30% d'avoir temporairement 1117/1119 faible FZRA temporairement 1121/1122 4000 faible RASN brume couverture nuageuse fragmentée à 004

Aéroport à proximité de Kristiansand Kjevik

Météo générale à 5 jours à Kristiansand (8.3 km)Aéroport Lista (86 km)Aéroport Fyresdal (111 km)Aéroport Thisted (132 km)Aéroport Skien Geiteryggen (139 km)Aéroport Sindal (149 km)Aéroport Morso (159 km)

Vue aérienne de l'aéroport Kristiansand Kjevik

NOTAM de l'aéroport Kristiansand Kjevik

Les NOTAM sont fournis sans aucune garantie de leur actualité. Le pilote est le seul responsable de la vérification de sa validité avant de l'utiliser opérationnellement pour préparer un vol ou l'utiliser lors de sa navigation.

Pas de NOTAM

Sources des données